Time;durP1;ratioP1;P1;durP2;ratioP2;P2;SDS_P1;SDS_P2;PMS_P1;PMS_P2;Temp;Humidity;BMP_temperature;BMP_pressure;BME280_temperature;BME280_humidity;BME280_pressure;Samples;Min_cycle;Max_cycle;Signal;HPM_P1;HPM_P2
2022/07/22 00:01:40;;;;;;;16.15;6.43;;;15.70;99.90;;;;;;5002738;28;20053;-89
2022/07/22 00:04:06;;;;;;;12.35;5.78;;;15.70;99.90;;;;;;4938897;28;20042;-89
2022/07/22 00:06:32;;;;;;;12.88;6.18;;;15.80;99.90;;;;;;4966837;28;20605;-89
2022/07/22 00:08:58;;;;;;;19.38;6.40;;;15.80;99.90;;;;;;4987860;28;20037;-89
2022/07/22 00:11:24;;;;;;;16.52;6.18;;;15.70;99.90;;;;;;4969266;28;20042;-89
2022/07/22 00:13:50;;;;;;;20.60;7.68;;;15.70;99.90;;;;;;4984595;28;20060;-89
2022/07/22 00:16:16;;;;;;;14.05;6.10;;;15.70;99.90;;;;;;4968326;28;20045;-89
2022/07/22 00:18:46;;;;;;;16.02;6.10;;;15.70;99.90;;;;;;4935935;28;20049;-89
2022/07/22 00:21:12;;;;;;;16.52;6.53;;;15.70;99.90;;;;;;4953786;28;20125;-89
2022/07/22 00:23:38;;;;;;;12.65;6.57;;;15.70;99.90;;;;;;4967337;28;20072;-89
2022/07/22 00:26:04;;;;;;;15.07;5.57;;;15.80;99.90;;;;;;4978369;28;20042;-89
2022/07/22 00:28:30;;;;;;;18.77;6.22;;;15.80;99.90;;;;;;4952933;28;20048;-89
2022/07/22 00:30:56;;;;;;;13.43;5.95;;;15.80;99.90;;;;;;4970179;28;20041;-89
2022/07/22 00:33:22;;;;;;;16.10;6.40;;;15.80;99.90;;;;;;4970409;28;20080;-89
2022/07/22 00:35:50;;;;;;;16.55;6.03;;;15.80;99.90;;;;;;4970029;28;20501;-88
2022/07/22 00:38:16;;;;;;;10.95;5.68;;;15.80;99.90;;;;;;4945129;28;20554;-89
2022/07/22 00:40:42;;;;;;;11.95;5.72;;;15.80;99.90;;;;;;4984172;28;20105;-89
2022/07/22 00:43:09;;;;;;;13.25;5.93;;;15.70;99.90;;;;;;4954430;28;20048;-89
2022/07/22 00:45:35;;;;;;;15.10;6.10;;;15.70;99.90;;;;;;4956391;28;20045;-89
2022/07/22 00:48:02;;;;;;;11.00;4.95;;;15.70;99.90;;;;;;4974891;28;20045;-89
2022/07/22 00:50:29;;;;;;;12.35;5.55;;;15.70;99.90;;;;;;4991638;28;20057;-89
2022/07/22 00:52:55;;;;;;;10.63;4.63;;;15.70;99.90;;;;;;4975457;28;20073;-88
2022/07/22 00:55:21;;;;;;;12.88;5.82;;;15.60;99.90;;;;;;4990974;28;20458;-89
2022/07/22 00:57:47;;;;;;;12.93;5.22;;;15.70;99.90;;;;;;4990746;28;20660;-89
2022/07/22 01:00:19;;;;;;;15.60;5.57;;;15.70;99.90;;;;;;4990509;28;20131;-88
2022/07/22 01:02:45;;;;;;;10.30;4.75;;;15.70;99.90;;;;;;4972474;28;20519;-88
2022/07/22 01:05:11;;;;;;;13.50;5.32;;;15.70;99.90;;;;;;4971973;28;20042;-88
2022/07/22 01:07:38;;;;;;;11.73;5.20;;;15.70;99.90;;;;;;4996453;28;20037;-88
2022/07/22 01:10:05;;;;;;;14.55;5.22;;;15.70;99.90;;;;;;4990431;28;20053;-88
2022/07/22 01:12:32;;;;;;;10.77;5.43;;;15.70;99.90;;;;;;4975282;28;20041;-88
2022/07/22 01:14:59;;;;;;;10.15;4.80;;;15.70;99.90;;;;;;4974135;28;20049;-89
2022/07/22 01:17:25;;;;;;;15.60;5.60;;;15.70;99.90;;;;;;4975298;28;20048;-88
2022/07/22 01:19:51;;;;;;;16.65;5.32;;;15.70;99.90;;;;;;4958954;28;20049;-89
2022/07/22 01:22:18;;;;;;;14.95;5.20;;;15.70;99.90;;;;;;4988328;28;20509;-89
2022/07/22 01:24:44;;;;;;;13.75;4.68;;;15.70;99.90;;;;;;4972810;28;20102;-88
2022/07/22 01:27:10;;;;;;;13.13;4.90;;;15.70;99.90;;;;;;4959028;28;20284;-88
2022/07/22 01:29:36;;;;;;;13.00;4.72;;;15.70;99.90;;;;;;4970318;28;20536;-89
2022/07/22 01:32:03;;;;;;;12.38;5.22;;;15.70;99.90;;;;;;4970247;28;20045;-89
2022/07/22 01:34:29;;;;;;;12.63;4.63;;;15.70;99.90;;;;;;4970426;28;20561;-88
2022/07/22 01:36:55;;;;;;;13.00;4.80;;;15.70;99.90;;;;;;4973034;28;20041;-88
2022/07/22 01:39:21;;;;;;;15.50;5.43;;;15.70;99.90;;;;;;4970954;28;20044;-89
2022/07/22 01:41:47;;;;;;;17.08;5.60;;;15.70;99.90;;;;;;4967239;28;20088;-88
2022/07/22 01:44:14;;;;;;;12.90;4.95;;;15.70;99.90;;;;;;4974090;28;20054;-88
2022/07/22 01:46:40;;;;;;;16.42;4.82;;;15.70;99.90;;;;;;4956046;28;20041;-89
2022/07/22 01:49:06;;;;;;;14.82;4.80;;;15.70;99.90;;;;;;4942112;28;20140;-88
2022/07/22 01:51:37;;;;;;;14.75;5.35;;;15.70;99.90;;;;;;4953349;28;20053;-88
2022/07/22 01:54:04;;;;;;;11.48;5.05;;;15.70;99.90;;;;;;4988686;28;20052;-89
2022/07/22 01:56:30;;;;;;;13.05;5.15;;;15.70;99.90;;;;;;4969916;28;20041;-88
2022/07/22 01:58:57;;;;;;;20.25;6.07;;;15.70;99.90;;;;;;4989078;28;20429;-88
2022/07/22 02:01:26;;;;;;;12.73;4.28;;;15.70;99.90;;;;;;4970948;28;20048;-88
2022/07/22 02:03:53;;;;;;;11.35;4.30;;;15.60;99.90;;;;;;4971225;28;20501;-89
2022/07/22 02:06:19;;;;;;;10.57;4.30;;;15.70;99.90;;;;;;4975294;28;20156;-89
2022/07/22 02:08:45;;;;;;;13.90;4.47;;;15.70;99.90;;;;;;4988972;28;20446;-88
2022/07/22 02:11:13;;;;;;;13.20;4.57;;;15.60;99.90;;;;;;4993872;28;20045;-88
2022/07/22 02:13:59;;;;;;;11.02;4.20;;;15.60;99.90;;;;;;4939100;28;20046;-89
2022/07/22 02:16:27;;;;;;;13.30;4.53;;;15.60;99.90;;;;;;5004663;28;20128;-89
2022/07/22 02:18:54;;;;;;;12.15;3.65;;;15.50;99.90;;;;;;4969976;28;20103;-88
2022/07/22 02:21:20;;;;;;;13.38;4.28;;;15.50;99.90;;;;;;5001357;28;20509;-88
2022/07/22 02:23:47;;;;;;;13.93;4.28;;;15.50;99.90;;;;;;4969765;28;20046;-88
2022/07/22 02:26:13;;;;;;;14.10;4.22;;;15.50;99.90;;;;;;5000719;28;20085;-88
2022/07/22 02:28:40;;;;;;;9.65;4.15;;;15.50;99.90;;;;;;4969813;28;20049;-88
2022/07/22 02:31:06;;;;;;;11.43;3.97;;;15.50;99.90;;;;;;4970746;28;20095;-88
2022/07/22 02:33:32;;;;;;;14.13;4.43;;;15.50;99.90;;;;;;4960036;28;21577;-88
2022/07/22 02:35:59;;;;;;;10.55;3.85;;;15.50;99.90;;;;;;4970131;28;20395;-88
2022/07/22 02:38:25;;;;;;;11.88;3.35;;;15.40;99.90;;;;;;4988998;28;20060;-87
2022/07/22 02:40:52;;;;;;;8.65;3.40;;;15.50;99.90;;;;;;4964313;28;20661;-88
2022/07/22 02:43:18;;;;;;;11.73;3.63;;;15.40;99.90;;;;;;4950870;28;20046;-88
2022/07/22 02:45:44;;;;;;;10.48;3.47;;;15.40;99.90;;;;;;4951401;28;20041;-88
2022/07/22 02:48:10;;;;;;;11.48;3.85;;;15.40;99.90;;;;;;4986177;28;20087;-89
2022/07/22 02:50:37;;;;;;;10.82;3.20;;;15.40;99.90;;;;;;4970459;28;20091;-88
2022/07/22 02:53:05;;;;;;;7.57;3.58;;;15.40;99.90;;;;;;4937714;28;20457;-87
2022/07/22 02:55:36;;;;;;;10.67;3.50;;;15.40;99.90;;;;;;4966766;28;20140;-87
2022/07/22 02:58:08;;;;;;;11.98;3.25;;;15.40;99.90;;;;;;4985158;28;20800;-88
2022/07/22 03:00:37;;;;;;;11.15;3.10;;;15.40;99.90;;;;;;4975774;28;20050;-88
2022/07/22 03:03:04;;;;;;;11.10;3.30;;;15.40;99.90;;;;;;5004912;28;20048;-88
2022/07/22 03:05:32;;;;;;;9.25;3.30;;;15.40;99.90;;;;;;4980557;28;20041;-88
2022/07/22 03:08:14;;;;;;;11.48;4.00;;;15.40;99.90;;;;;;5001867;28;20487;-87
2022/07/22 03:10:40;;;;;;;12.48;3.58;;;15.40;99.90;;;;;;4956652;28;20480;-87
2022/07/22 03:13:06;;;;;;;9.27;3.25;;;15.40;99.90;;;;;;4974927;28;20597;-87
2022/07/22 03:15:32;;;;;;;11.05;3.85;;;15.40;99.90;;;;;;4985768;28;20041;-86
2022/07/22 03:17:58;;;;;;;7.47;3.03;;;15.40;99.90;;;;;;4986403;28;20581;-87
2022/07/22 03:20:25;;;;;;;9.40;3.22;;;15.40;99.90;;;;;;4989294;28;20379;-87
2022/07/22 03:22:51;;;;;;;8.57;3.25;;;15.40;99.90;;;;;;4958772;28;20045;-87
2022/07/22 03:25:18;;;;;;;9.38;3.05;;;15.40;99.90;;;;;;4988048;28;20053;-87
2022/07/22 03:27:44;;;;;;;8.38;2.95;;;15.40;99.90;;;;;;5005203;28;20048;-87
2022/07/22 03:30:11;;;;;;;8.50;3.08;;;15.40;99.90;;;;;;4956892;28;20049;-87
2022/07/22 03:32:44;;;;;;;10.23;2.75;;;15.40;99.90;;;;;;4960050;28;20141;-87
2022/07/22 03:35:11;;;;;;;9.07;2.85;;;15.40;99.90;;;;;;4974009;28;20120;-88
2022/07/22 03:37:41;;;;;;;6.82;3.03;;;15.40;99.90;;;;;;4968354;28;20460;-87
2022/07/22 03:40:08;;;;;;;9.82;3.45;;;15.40;99.90;;;;;;4971859;28;20095;-87
2022/07/22 03:42:35;;;;;;;8.05;2.90;;;15.40;99.90;;;;;;4974398;28;20064;-87
2022/07/22 03:45:01;;;;;;;7.60;3.03;;;15.40;99.90;;;;;;4973371;28;20120;-88
2022/07/22 03:47:27;;;;;;;8.55;3.25;;;15.40;99.90;;;;;;4976618;28;20037;-88
2022/07/22 03:49:53;;;;;;;7.70;3.10;;;15.40;99.90;;;;;;4971894;28;20140;-88
2022/07/22 03:52:26;;;;;;;8.68;3.63;;;15.40;99.90;;;;;;4958045;28;20080;-88
2022/07/22 03:54:52;;;;;;;9.13;3.10;;;15.40;99.90;;;;;;5005698;28;20049;-87
2022/07/22 03:57:19;;;;;;;8.68;3.38;;;15.40;99.90;;;;;;4956963;28;20042;-87
2022/07/22 03:59:48;;;;;;;9.30;2.97;;;15.40;99.90;;;;;;4989903;28;20053;-87
2022/07/22 04:02:14;;;;;;;11.10;3.47;;;15.40;99.90;;;;;;4973305;28;20058;-88
2022/07/22 04:04:40;;;;;;;8.48;4.22;;;15.40;99.90;;;;;;4958402;28;20034;-87
2022/07/22 04:07:06;;;;;;;8.98;3.05;;;15.40;99.90;;;;;;4994269;28;20078;-87
2022/07/22 04:09:35;;;;;;;14.30;3.35;;;15.40;99.90;;;;;;4989047;28;20141;-88
2022/07/22 04:12:03;;;;;;;13.10;3.50;;;15.40;99.90;;;;;;4990109;28;20489;-87
2022/07/22 04:14:32;;;;;;;9.38;3.63;;;15.40;99.90;;;;;;4957796;28;20309;-88
2022/07/22 04:16:59;;;;;;;9.45;3.15;;;15.40;99.90;;;;;;4961096;28;20044;-87
2022/07/22 04:19:25;;;;;;;12.80;3.40;;;15.40;99.90;;;;;;4990749;28;20069;-87
2022/07/22 04:21:53;;;;;;;10.50;3.53;;;15.40;99.90;;;;;;4939548;28;20103;-87
2022/07/22 04:24:21;;;;;;;11.15;3.53;;;15.50;99.90;;;;;;4971139;28;20073;-87
2022/07/22 04:26:48;;;;;;;10.25;3.92;;;15.40;99.90;;;;;;4958931;28;20037;-88
2022/07/22 04:29:14;;;;;;;6.93;3.25;;;15.50;99.90;;;;;;4987407;28;20131;-87
2022/07/22 04:31:41;;;;;;;9.98;4.43;;;15.50;99.90;;;;;;4974226;28;20112;-86
2022/07/22 04:34:12;;;;;;;10.93;3.85;;;15.50;99.90;;;;;;4948983;28;20045;-87
2022/07/22 04:36:38;;;;;;;6.07;3.13;;;15.50;99.90;;;;;;4970393;28;20064;-87
2022/07/22 04:39:05;;;;;;;11.20;3.35;;;15.50;99.90;;;;;;4973560;28;20186;-87
2022/07/22 04:41:32;;;;;;;11.30;3.30;;;15.50;99.90;;;;;;4969849;28;20061;-87
2022/07/22 04:43:59;;;;;;;9.27;3.47;;;15.50;99.90;;;;;;4971946;28;20395;-87
2022/07/22 04:46:28;;;;;;;9.77;3.20;;;15.50;99.90;;;;;;4971941;28;20393;-87
2022/07/22 04:48:55;;;;;;;8.05;3.30;;;15.50;99.90;;;;;;4971794;28;20053;-87
2022/07/22 04:51:21;;;;;;;6.00;2.70;;;15.50;99.90;;;;;;4954576;28;20053;-87
2022/07/22 04:53:49;;;;;;;10.35;3.63;;;15.50;99.90;;;;;;4972212;28;20107;-87
2022/07/22 04:56:19;;;;;;;20.15;4.00;;;15.50;99.90;;;;;;4969946;28;20512;-87
2022/07/22 04:58:45;;;;;;;8.48;3.58;;;15.50;99.90;;;;;;4968021;28;20259;-87
2022/07/22 05:01:12;;;;;;;12.38;3.78;;;15.50;99.90;;;;;;5002733;28;20126;-87
2022/07/22 05:03:41;;;;;;;9.57;3.35;;;15.60;99.90;;;;;;4969959;28;20049;-87
2022/07/22 05:06:08;;;;;;;7.32;3.10;;;15.60;99.90;;;;;;4988787;28;20119;-87
2022/07/22 05:08:37;;;;;;;9.60;3.30;;;15.70;99.90;;;;;;4955605;28;20335;-87
2022/07/22 05:11:03;;;;;;;8.57;3.30;;;15.60;99.90;;;;;;4954473;28;20111;-87
2022/07/22 05:13:29;;;;;;;8.10;3.30;;;15.80;99.90;;;;;;4986261;28;20037;-87
2022/07/22 05:15:55;;;;;;;8.13;2.88;;;15.70;99.90;;;;;;4971050;28;20503;-87
2022/07/22 05:18:21;;;;;;;7.50;2.95;;;15.80;99.90;;;;;;4952646;28;20050;-87
2022/07/22 05:20:48;;;;;;;12.48;3.55;;;15.80;99.90;;;;;;5000023;28;20452;-86
2022/07/22 05:23:14;;;;;;;12.20;3.30;;;15.80;99.90;;;;;;4969066;28;20087;-86
2022/07/22 05:25:41;;;;;;;8.90;2.70;;;15.90;99.90;;;;;;4986556;28;20056;-87
2022/07/22 05:28:07;;;;;;;8.38;3.13;;;15.90;99.90;;;;;;4987066;28;20459;-87
2022/07/22 05:30:37;;;;;;;7.88;2.95;;;16.00;99.90;;;;;;4954862;28;20565;-86
2022/07/22 05:33:06;;;;;;;7.30;3.05;;;16.00;99.90;;;;;;4952151;28;20504;-86
2022/07/22 05:35:50;;;;;;;8.82;2.95;;;16.00;99.90;;;;;;4957731;28;20038;-86
2022/07/22 05:38:17;;;;;;;7.68;3.03;;;16.10;99.90;;;;;;4970708;28;20148;-86
2022/07/22 05:40:43;;;;;;;10.50;3.17;;;16.10;99.90;;;;;;4974647;28;20052;-87
2022/07/22 05:43:10;;;;;;;8.05;2.65;;;16.20;99.90;;;;;;4986252;28;20793;-86
2022/07/22 05:45:36;;;;;;;10.32;2.97;;;16.20;99.90;;;;;;4969253;28;20072;-86
2022/07/22 05:48:02;;;;;;;6.45;3.42;;;16.20;99.90;;;;;;4966319;28;20050;-87
2022/07/22 05:50:30;;;;;;;7.70;2.83;;;16.20;99.90;;;;;;4975343;28;20064;-87
2022/07/22 05:52:57;;;;;;;4.50;2.50;;;16.20;99.90;;;;;;4934366;28;20137;-87
2022/07/22 05:55:23;;;;;;;7.88;2.75;;;16.20;99.90;;;;;;4966967;28;20057;-86
2022/07/22 05:57:50;;;;;;;6.32;3.22;;;16.20;99.90;;;;;;5001952;28;20218;-88
2022/07/22 06:00:17;;;;;;;8.38;2.85;;;16.20;99.90;;;;;;4953950;28;20049;-85
2022/07/22 06:02:44;;;;;;;6.85;2.60;;;16.30;99.90;;;;;;4971642;28;20041;-87
2022/07/22 06:05:15;;;;;;;;;;;16.40;99.90;;;;;;4965119;28;20449;-85
2022/07/22 06:07:42;;;;;;;7.55;2.63;;;16.40;99.90;;;;;;4985484;28;19921;-88
2022/07/22 06:10:10;;;;;;;46.28;41.08;;;16.50;99.90;;;;;;4965270;28;20045;-87
2022/07/22 06:12:37;;;;;;;19.10;13.77;;;16.50;99.90;;;;;;5000454;28;20037;-85
2022/07/22 06:15:04;;;;;;;10.60;4.38;;;16.50;99.90;;;;;;4991706;28;20300;-86
2022/07/22 06:17:31;;;;;;;9.27;3.50;;;16.60;99.90;;;;;;4968517;28;20483;-85
2022/07/22 06:19:58;;;;;;;10.10;3.00;;;16.70;99.90;;;;;;4984212;28;20050;-85
2022/07/22 06:22:25;;;;;;;5.80;2.60;;;16.70;99.90;;;;;;4966942;28;20041;-85
2022/07/22 06:24:51;;;;;;;11.40;3.15;;;16.70;99.90;;;;;;4965591;28;20045;-84
2022/07/22 06:27:17;;;;;;;7.57;2.47;;;16.80;99.90;;;;;;4989593;28;20054;-85
2022/07/22 06:29:44;;;;;;;7.78;2.90;;;16.90;99.90;;;;;;4983234;28;20069;-85
2022/07/22 06:32:10;;;;;;;10.52;2.90;;;16.90;99.90;;;;;;4952263;28;20047;-85
2022/07/22 06:34:36;;;;;;;7.00;2.38;;;16.90;99.90;;;;;;4952746;28;20151;-87
2022/07/22 06:37:05;;;;;;;7.20;2.40;;;16.90;99.90;;;;;;4951439;28;20042;-85
2022/07/22 06:39:31;;;;;;;7.60;2.30;;;16.90;99.90;;;;;;4982878;28;20041;-86
2022/07/22 06:42:18;;;;;;;8.57;2.40;;;17.00;99.90;;;;;;5002576;28;20274;-85
2022/07/22 06:44:53;;;;;;;7.18;2.42;;;16.90;99.90;;;;;;4969890;28;20103;-84
2022/07/22 06:47:38;;;;;;;8.43;2.58;;;17.10;99.90;;;;;;5004122;28;20057;-85
2022/07/22 06:50:06;;;;;;;7.53;3.17;;;17.10;99.90;;;;;;4944469;28;20080;-84
2022/07/22 06:52:33;;;;;;;8.80;3.15;;;17.10;99.90;;;;;;4984977;28;20053;-82
2022/07/22 06:55:00;;;;;;;16.00;11.43;;;17.20;99.90;;;;;;4965893;28;20052;-82
2022/07/22 06:57:32;;;;;;;14.88;11.45;;;17.30;99.90;;;;;;4983577;28;20041;-83
2022/07/22 06:59:59;;;;;;;18.30;11.00;;;17.30;99.90;;;;;;4937272;28;20454;-83
2022/07/22 07:02:26;;;;;;;5.30;2.10;;;17.30;99.90;;;;;;4966053;28;20088;-80
2022/07/22 07:04:53;;;;;;;6.13;2.22;;;17.30;99.90;;;;;;4967093;28;20077;-83
2022/07/22 07:07:19;;;;;;;9.60;2.90;;;17.20;99.90;;;;;;4983987;28;20072;-82
2022/07/22 07:09:55;;;;;;;12.40;7.10;;;17.30;99.90;;;;;;4976455;28;20041;-82
2022/07/22 07:12:33;;;;;;;11.23;3.00;;;17.50;99.90;;;;;;4968283;28;20558;-81
2022/07/22 07:15:08;;;;;;;8.35;2.10;;;17.50;99.90;;;;;;4976374;28;20615;-82
2022/07/22 07:17:35;;;;;;;6.30;2.25;;;17.60;99.90;;;;;;4968415;28;20045;-83
2022/07/22 07:20:06;;;;;;;7.18;2.50;;;17.60;99.90;;;;;;5014886;28;20381;-83
2022/07/22 07:22:33;;;;;;;13.05;3.00;;;17.60;99.90;;;;;;4957982;28;20049;-83
2022/07/22 07:25:07;;;;;;;10.68;3.28;;;17.80;99.90;;;;;;4965470;28;20214;-83
2022/07/22 07:27:34;;;;;;;6.95;3.05;;;17.80;99.90;;;;;;4963656;28;20039;-82
2022/07/22 07:30:05;;;;;;;17.30;9.30;;;17.90;99.90;;;;;;5000166;28;20518;-83
2022/07/22 07:32:31;;;;;;;5.85;1.92;;;17.90;99.90;;;;;;4951833;28;20049;-83
2022/07/22 07:34:57;;;;;;;8.90;5.15;;;17.90;99.90;;;;;;4976961;28;20447;-85
2022/07/22 07:37:23;;;;;;;4.63;1.38;;;18.10;99.90;;;;;;4966699;28;20429;-83
2022/07/22 07:39:50;;;;;;;6.55;2.55;;;18.30;99.90;;;;;;4968944;28;20291;-83
2022/07/22 07:42:16;;;;;;;7.45;4.15;;;18.30;99.90;;;;;;4967198;28;20049;-83
2022/07/22 07:44:42;;;;;;;7.03;4.50;;;18.40;99.90;;;;;;4965690;28;20084;-83
2022/07/22 07:47:08;;;;;;;4.60;1.70;;;18.50;99.90;;;;;;4965809;28;20120;-83
2022/07/22 07:49:34;;;;;;;6.50;1.92;;;18.50;99.90;;;;;;4983398;28;20069;-79
2022/07/22 07:52:01;;;;;;;5.53;1.55;;;18.50;99.90;;;;;;4970559;28;20509;-81
2022/07/22 07:54:27;;;;;;;6.25;1.75;;;18.60;99.90;;;;;;4972545;28;20050;-81
2022/07/22 07:56:54;;;;;;;7.63;2.40;;;18.70;99.90;;;;;;4985196;28;20140;-83
2022/07/22 07:59:22;;;;;;;5.80;1.98;;;18.80;99.90;;;;;;4983502;28;20683;-85
2022/07/22 08:01:49;;;;;;;8.65;3.63;;;18.90;99.90;;;;;;4956383;28;20051;-86
2022/07/22 08:04:15;;;;;;;4.65;2.03;;;19.00;99.90;;;;;;4970737;28;20440;-86
2022/07/22 08:06:41;;;;;;;7.30;3.38;;;18.90;99.90;;;;;;4955466;28;20462;-86
2022/07/22 08:09:07;;;;;;;5.53;2.22;;;19.00;99.90;;;;;;4940288;28;20397;-86
2022/07/22 08:11:37;;;;;;;5.00;1.35;;;18.80;99.90;;;;;;4969721;28;20473;-86
2022/07/22 08:14:26;;;;;;;6.05;1.70;;;18.70;99.90;;;;;;4971230;28;20053;-86
2022/07/22 08:17:23;;;;;;;41.85;10.70;;;18.70;99.90;;;;;;4982022;28;20520;-88
2022/07/22 08:19:50;;;;;;;25.90;6.18;;;18.60;99.90;;;;;;4952660;28;20050;-88
2022/07/22 08:22:16;;;;;;;24.75;6.68;;;18.50;99.90;;;;;;4976112;28;20049;-85
2022/07/22 08:24:44;;;;;;;7.55;2.17;;;18.50;99.90;;;;;;4958048;28;20053;-87
2022/07/22 08:27:15;;;;;;;5.77;1.50;;;18.50;99.90;;;;;;4968014;28;20053;-86
2022/07/22 08:29:41;;;;;;;23.13;7.30;;;18.40;99.90;;;;;;4982916;28;20041;-86
2022/07/22 08:32:08;;;;;;;6.55;1.60;;;18.30;99.90;;;;;;4981955;28;20044;-82
2022/07/22 08:34:35;;;;;;;5.57;1.88;;;18.30;99.90;;;;;;4971767;28;20048;-86
2022/07/22 08:37:01;;;;;;;5.07;2.50;;;18.30;99.90;;;;;;4983177;28;20452;-85
2022/07/22 08:39:27;;;;;;;14.23;8.48;;;18.30;99.90;;;;;;4966542;28;20049;-86
2022/07/22 08:41:55;;;;;;;7.05;2.28;;;18.40;99.90;;;;;;4954697;28;20034;-86
2022/07/22 08:44:22;;;;;;;7.50;2.40;;;18.60;99.90;;;;;;4947306;28;20105;-86
2022/07/22 08:46:48;;;;;;;6.05;2.95;;;18.70;99.90;;;;;;4959435;28;20552;-86
2022/07/22 08:49:21;;;;;;;7.43;3.45;;;18.70;99.90;;;;;;4961278;28;20084;-85
2022/07/22 08:52:10;;;;;;;6.70;1.83;;;18.70;99.90;;;;;;4946243;28;20043;-85
2022/07/22 08:54:48;;;;;;;7.05;2.05;;;18.70;99.90;;;;;;4936082;28;20485;-86
2022/07/22 08:57:23;;;;;;;5.05;1.90;;;18.70;99.90;;;;;;4950912;28;20557;-87
2022/07/22 08:59:54;;;;;;;7.68;3.13;;;18.70;99.90;;;;;;4966219;28;20111;-86
2022/07/22 09:07:47;;;;;;;5.67;1.80;;;18.50;99.90;;;;;;4936148;23;20212;-82
2022/07/22 09:10:33;;;;;;;9.38;5.20;;;18.50;99.90;;;;;;4898279;28;20322;-81
2022/07/22 09:13:19;;;;;;;30.20;26.95;;;18.60;99.90;;;;;;4858555;28;20047;-80
2022/07/22 09:15:58;;;;;;;5.85;2.15;;;18.80;99.90;;;;;;4891397;28;20048;-80
2022/07/22 09:18:47;;;;;;;8.95;2.00;;;18.80;99.90;;;;;;4910849;29;20531;-81
2022/07/22 09:21:34;;;;;;;10.23;4.55;;;19.00;99.90;;;;;;4895563;28;20069;-80
2022/07/22 09:24:32;;;;;;;5.32;2.00;;;19.20;99.90;;;;;;4905233;28;20511;-81
2022/07/22 09:27:07;;;;;;;9.48;3.30;;;19.20;99.90;;;;;;4934382;28;20047;-81
2022/07/22 09:29:49;;;;;;;4.45;2.55;;;19.10;99.90;;;;;;4894207;28;20053;-80
2022/07/22 09:32:17;;;;;;;6.13;2.90;;;19.20;99.90;;;;;;4888313;29;20073;-81
2022/07/22 09:35:04;;;;;;;5.03;2.00;;;19.40;99.90;;;;;;4901897;29;20047;-82
2022/07/22 09:37:47;;;;;;;8.13;2.35;;;19.50;99.90;;;;;;4892067;28;20050;-82
2022/07/22 09:40:16;;;;;;;6.72;2.10;;;19.50;99.90;;;;;;4910064;28;20126;-83
2022/07/22 09:42:51;;;;;;;4.95;1.90;;;19.70;99.90;;;;;;4895283;29;20049;-82
2022/07/22 09:45:18;;;;;;;6.70;3.47;;;19.80;99.90;;;;;;4913388;28;20138;-86
2022/07/22 09:47:49;;;;;;;9.93;5.53;;;20.00;99.90;;;;;;4879513;29;20054;-88
2022/07/22 09:50:37;;;;;;;5.35;2.25;;;20.10;99.90;;;;;;4882687;29;20055;-83
2022/07/22 09:53:17;;;;;;;9.35;4.90;;;20.20;99.90;;;;;;4904746;28;20086;-84
2022/07/22 09:55:48;;;;;;;5.13;1.33;;;20.20;99.90;;;;;;4873031;29;20332;-84
2022/07/22 09:58:15;;;;;;;5.95;1.48;;;20.20;99.90;;;;;;4881300;28;20475;-84
2022/07/22 10:00:42;;;;;;;6.72;1.77;;;20.20;99.90;;;;;;4909551;29;20079;-85
2022/07/22 10:03:12;;;;;;;4.05;1.10;;;20.30;99.90;;;;;;4877248;28;20715;-83
2022/07/22 10:05:42;;;;;;;4.18;1.52;;;20.40;99.90;;;;;;4890308;28;20051;-84
2022/07/22 10:08:09;;;;;;;4.38;1.40;;;20.40;99.90;;;;;;4877917;29;20066;-83
2022/07/22 10:10:38;;;;;;;3.42;1.42;;;20.40;99.90;;;;;;4892753;28;20071;-82
2022/07/22 10:13:06;;;;;;;8.02;1.42;;;20.30;99.90;;;;;;4919575;29;20059;-80
2022/07/22 10:15:33;;;;;;;40.67;33.35;;;20.30;99.90;;;;;;4917971;28;20085;-84
2022/07/22 10:18:05;;;;;;;12.63;8.05;;;20.30;99.90;;;;;;4892753;28;20050;-80
2022/07/22 10:20:33;;;;;;;;;;;20.30;99.90;;;;;;4910697;29;20051;-86
2022/07/22 10:23:08;;;;;;;5.55;1.08;;;20.10;99.90;;;;;;4915415;28;19934;-86
2022/07/22 10:25:59;;;;;;;3.63;1.00;;;20.10;99.90;;;;;;4882616;29;20208;-86
2022/07/22 10:28:28;;;;;;;5.82;1.38;;;20.10;99.90;;;;;;4897698;28;20131;-87
2022/07/22 10:31:24;;;;;;;3.58;1.15;;;19.80;99.90;;;;;;4905116;28;20117;-87
2022/07/22 10:33:56;;;;;;;5.55;1.45;;;19.80;99.90;;;;;;4921883;28;20043;-87
2022/07/22 10:36:37;;;;;;;6.40;1.70;;;19.60;99.90;;;;;;4910175;28;20145;-87
2022/07/22 10:39:07;;;;;;;4.70;1.20;;;19.50;99.90;;;;;;4903472;28;20348;-87
2022/07/22 10:41:40;;;;;;;3.47;1.25;;;19.50;99.90;;;;;;4921273;28;20647;-87
2022/07/22 10:44:06;;;;;;;6.80;1.60;;;19.60;99.90;;;;;;4903421;28;20039;-89
2022/07/22 10:46:51;;;;;;;6.85;1.40;;;19.30;99.90;;;;;;4886302;29;20138;-87
2022/07/22 10:49:20;;;;;;;4.15;1.55;;;19.30;99.90;;;;;;4906188;28;20399;-88
2022/07/22 10:52:16;;;;;;;8.20;1.90;;;19.50;99.90;;;;;;4904705;28;20057;-88
2022/07/22 10:55:18;;;;;;;4.57;1.67;;;19.50;99.90;;;;;;4900068;28;20078;-88
2022/07/22 10:57:52;;;;;;;;;;;19.40;99.90;;;;;;4904725;28;20086;-88
2022/07/22 11:00:18;;;;;;;5.88;1.65;;;19.60;99.90;;;;;;4887185;28;19926;-88
2022/07/22 11:02:45;;;;;;;4.57;1.70;;;19.60;99.90;;;;;;4901088;29;20179;-88
2022/07/22 11:05:12;;;;;;;5.28;1.20;;;19.80;99.90;;;;;;4904571;28;20058;-89
2022/07/22 11:07:48;;;;;;;4.72;1.38;;;19.90;99.90;;;;;;4915270;28;20145;-86
2022/07/22 11:10:17;;;;;;;5.20;1.50;;;19.90;99.90;;;;;;4871672;28;20190;-86
2022/07/22 11:12:48;;;;;;;6.85;1.70;;;20.00;99.90;;;;;;4915511;29;20047;-88
2022/07/22 11:15:25;;;;;;;5.30;1.00;;;20.10;99.90;;;;;;4899242;29;20134;-88
2022/07/22 11:17:56;;;;;;;2.53;1.10;;;20.20;99.90;;;;;;4897313;28;20056;-88
2022/07/22 11:20:22;;;;;;;4.30;1.30;;;20.20;99.90;;;;;;4896917;29;20066;-87
2022/07/22 11:22:49;;;;;;;5.47;1.08;;;20.20;99.90;;;;;;4889784;28;20055;-88
2022/07/22 11:25:16;;;;;;;3.97;1.05;;;20.20;99.90;;;;;;4881635;29;20079;-88
2022/07/22 11:27:52;;;;;;;4.10;1.13;;;20.20;99.90;;;;;;4906732;29;20642;-87
2022/07/22 11:30:18;;;;;;;2.20;0.70;;;20.00;99.90;;;;;;4901499;29;20083;-88
2022/07/22 11:32:47;;;;;;;3.00;0.93;;;20.10;99.90;;;;;;4889606;29;20066;-87
2022/07/22 11:35:13;;;;;;;3.20;1.17;;;20.00;99.90;;;;;;4901531;28;20051;-87
2022/07/22 11:37:40;;;;;;;4.25;1.00;;;20.00;99.90;;;;;;4890914;28;20094;-87
2022/07/22 11:40:09;;;;;;;5.15;1.25;;;20.00;99.90;;;;;;4893289;29;20526;-88
2022/07/22 11:42:35;;;;;;;4.60;1.10;;;20.20;99.90;;;;;;4897687;28;20042;-88
2022/07/22 11:45:04;;;;;;;5.18;1.65;;;20.10;99.90;;;;;;4888698;29;20098;-88
2022/07/22 11:47:30;;;;;;;6.85;1.48;;;20.10;99.90;;;;;;4872466;28;20051;-87
2022/07/22 11:49:56;;;;;;;5.22;1.38;;;20.10;99.90;;;;;;4890811;28;20051;-88
2022/07/22 11:52:25;;;;;;;5.07;1.10;;;20.10;99.90;;;;;;4886995;29;20130;-88
2022/07/22 11:54:51;;;;;;;4.00;1.05;;;20.10;99.90;;;;;;4913416;28;20043;-87
2022/07/22 11:57:17;;;;;;;5.65;1.10;;;20.00;99.90;;;;;;4909723;28;20051;-88
2022/07/22 11:59:43;;;;;;;2.10;0.98;;;20.00;99.90;;;;;;4890006;28;20039;-87
2022/07/22 12:02:13;;;;;;;3.53;1.10;;;20.20;99.90;;;;;;4886626;29;20229;-86
2022/07/22 12:04:40;;;;;;;5.03;1.15;;;20.20;99.90;;;;;;4915512;29;20051;-87
2022/07/22 12:07:06;;;;;;;3.47;0.95;;;20.10;99.90;;;;;;4882191;28;20071;-87
2022/07/22 12:09:37;;;;;;;5.60;1.65;;;20.10;99.90;;;;;;4894984;28;20110;-86
2022/07/22 12:12:07;;;;;;;3.40;0.98;;;20.10;99.90;;;;;;4883854;28;20039;-86
2022/07/22 12:14:35;;;;;;;;;;;19.80;99.90;;;;;;4903590;28;20051;-86
2022/07/22 12:17:03;;;;;;;3.38;1.10;;;19.70;99.90;;;;;;4901637;28;20391;-87
2022/07/22 12:19:31;;;;;;;4.22;1.40;;;19.70;99.90;;;;;;4916144;29;20874;-87
2022/07/22 12:22:04;;;;;;;5.57;1.10;;;19.70;99.90;;;;;;4893916;28;20047;-86
2022/07/22 12:24:39;;;;;;;2.83;1.42;;;19.60;99.90;;;;;;4923055;29;20051;-86
2022/07/22 12:27:11;;;;;;;4.45;1.60;;;19.70;99.90;;;;;;4877915;28;20061;-86
2022/07/22 12:29:38;;;;;;;3.30;1.33;;;19.70;99.90;;;;;;4901568;28;20047;-88
2022/07/22 12:32:06;;;;;;;4.18;1.00;;;20.00;99.90;;;;;;4899716;29;20142;-82
2022/07/22 12:35:07;;;;;;;7.40;1.98;;;19.90;99.90;;;;;;4918819;29;20071;-89
2022/07/22 12:37:41;;;;;;;3.80;1.75;;;20.10;99.90;;;;;;4888150;29;20130;-89
2022/07/22 12:40:18;;;;;;;6.47;2.95;;;20.20;99.90;;;;;;4905771;29;20075;-89
2022/07/22 12:43:06;;;;;;;7.25;5.15;;;20.30;99.90;;;;;;4935335;29;20027;-90
2022/07/22 12:45:37;;;;;;;5.60;1.35;;;20.40;99.90;;;;;;4933948;29;20043;-87
2022/07/22 12:48:03;;;;;;;3.97;1.38;;;20.30;99.90;;;;;;4909641;29;20058;-80
2022/07/22 12:50:39;;;;;;;3.10;1.00;;;20.30;99.90;;;;;;4913363;28;20093;-80
2022/07/22 12:53:13;;;;;;;2.80;1.05;;;20.10;99.90;;;;;;4932299;29;20051;-82
2022/07/22 12:55:41;;;;;;;3.80;1.30;;;20.30;99.90;;;;;;4883225;28;20043;-82
2022/07/22 12:58:08;;;;;;;5.18;1.35;;;20.30;99.90;;;;;;4926050;29;20118;-82
2022/07/22 13:00:37;;;;;;;4.75;1.30;;;20.40;99.90;;;;;;4897326;28;20113;-78